Time;durP1;ratioP1;P1;durP2;ratioP2;P2;SDS_P1;SDS_P2;PMS_P1;PMS_P2;Temp;Humidity;BMP_temperature;BMP_pressure;BME280_temperature;BME280_humidity;BME280_pressure;Samples;Min_cycle;Max_cycle;Signal;HPM_P1;HPM_P2
2022/06/19 00:07:00;;;;;;;9.02;4.20;;;;;;;17.13;100.00;100374.66;31440349;28;20069;-72
2022/06/19 00:22:03;;;;;;;4.70;3.28;;;;;;;17.01;100.00;100383.78;31440204;28;20045;-70
2022/06/19 00:37:06;;;;;;;11.43;4.50;;;;;;;16.92;100.00;100386.53;31438154;28;20060;-71
2022/06/19 00:52:12;;;;;;;7.15;4.30;;;;;;;16.85;100.00;100397.78;31459163;28;20059;-71
2022/06/19 01:07:15;;;;;;;7.90;5.25;;;;;;;16.79;100.00;100399.59;31464968;28;20064;-71
2022/06/19 01:22:50;;;;;;;;;;;;;;;16.77;100.00;100413.00;31434002;28;20041;-71
2022/06/19 01:37:55;;;;;;;10.73;5.43;;;;;;;16.78;100.00;100415.25;31433957;28;19927;-70
2022/06/19 01:53:27;;;;;;;8.63;6.53;;;;;;;16.72;100.00;100416.34;31469044;28;20052;-70
2022/06/19 02:08:32;;;;;;;11.70;7.13;;;;;;;16.79;100.00;100414.06;31453973;28;20045;-72
2022/06/19 02:23:37;;;;;;;12.05;7.13;;;;;;;16.98;100.00;100420.34;31455400;28;20059;-71
2022/06/19 02:38:39;;;;;;;11.43;6.78;;;;;;;17.30;100.00;100433.50;31426472;28;20432;-71
2022/06/19 02:53:41;;;;;;;18.02;8.55;;;;;;;17.48;100.00;100434.75;31435008;28;20052;-70
2022/06/19 03:08:43;;;;;;;14.85;8.40;;;;;;;17.76;100.00;100441.00;31442531;28;20052;-71
2022/06/19 03:23:45;;;;;;;10.65;7.03;;;;;;;17.99;100.00;100449.34;31426465;28;20045;-71
2022/06/19 03:38:47;;;;;;;17.33;6.97;;;;;;;18.37;100.00;100461.78;31435814;28;20052;-71
2022/06/19 03:53:51;;;;;;;8.77;6.38;;;;;;;18.95;98.19;100477.13;31419290;28;20486;-72
2022/06/19 04:08:54;;;;;;;10.03;6.03;;;;;;;19.55;97.03;100484.44;31399128;28;20052;-72
2022/06/19 04:23:58;;;;;;;11.02;6.28;;;;;;;20.30;93.56;100489.56;31426052;28;20488;-71
2022/06/19 04:39:01;;;;;;;12.30;6.97;;;;;;;20.65;94.39;100495.16;31408101;28;20049;-71
2022/06/19 04:54:03;;;;;;;10.40;7.03;;;;;;;21.19;92.47;100515.78;31428496;28;20053;-71
2022/06/19 05:09:05;;;;;;;15.70;7.30;;;;;;;21.58;89.71;100523.81;31426958;28;20052;-72
2022/06/19 05:24:08;;;;;;;12.93;7.50;;;;;;;22.15;88.35;100526.00;31443367;28;20061;-72
2022/06/19 05:39:10;;;;;;;;;;;;;;;22.66;80.61;100525.94;31458014;28;20057;-71
2022/06/19 05:54:13;;;;;;;10.88;7.50;;;;;;;23.45;83.59;100522.41;31469646;28;20312;-73
2022/06/19 06:09:15;;;;;;;9.70;6.27;;;;;;;24.08;76.96;100522.13;31453010;28;20052;-70
2022/06/19 06:24:17;;;;;;;12.13;5.80;;;;;;;24.54;76.17;100525.72;31443299;28;20044;-72
2022/06/19 06:39:20;;;;;;;7.43;4.03;;;;;;;24.91;66.30;100519.88;31452331;28;20056;-71
2022/06/19 06:54:22;;;;;;;7.10;3.72;;;;;;;25.76;66.52;100517.09;31434744;28;20054;-72
2022/06/19 07:09:23;;;;;;;;;;;;;;;26.17;55.49;100505.22;31435468;28;20143;-71
2022/06/19 07:24:25;;;;;;;5.43;4.20;;;;;;;26.86;55.42;100506.94;31435684;28;19931;-72
2022/06/19 07:39:27;;;;;;;4.03;2.85;;;;;;;27.37;51.13;100505.88;31428496;28;20059;-72
2022/06/19 07:54:29;;;;;;;3.20;2.40;;;;;;;26.95;46.58;100503.81;31437897;28;20048;-73
2022/06/19 08:09:31;;;;;;;7.97;2.70;;;;;;;27.78;45.17;100510.44;31418694;28;20507;-72
2022/06/19 08:24:33;;;;;;;3.65;2.60;;;;;;;28.23;42.73;100495.84;31454963;28;20048;-73
2022/06/19 08:39:36;;;;;;;8.25;6.43;;;;;;;28.74;41.90;100480.50;31441035;28;20092;-73
2022/06/19 08:54:57;;;;;;;6.30;2.72;;;;;;;29.50;38.84;100473.19;31463827;28;20106;-72
2022/06/19 09:10:21;;;;;;;4.43;3.30;;;;;;;29.88;40.21;100472.84;31441109;28;20055;-72
2022/06/19 09:25:41;;;;;;;4.15;2.55;;;;;;;30.51;37.51;100465.94;31447665;28;20048;-73
2022/06/19 09:40:47;;;;;;;3.58;2.50;;;;;;;30.76;36.04;100457.91;31434427;28;20060;-73
2022/06/19 09:55:58;;;;;;;3.40;2.70;;;;;;;31.31;37.38;100457.66;31459448;28;20084;-70
2022/06/19 10:11:06;;;;;;;4.10;3.17;;;;;;;31.68;38.13;100449.94;31450902;28;20055;-70
2022/06/19 10:26:33;;;;;;;3.07;2.37;;;;;;;30.32;35.12;100431.06;31449509;28;20064;-69
2022/06/19 10:42:03;;;;;;;11.48;6.90;;;;;;;32.20;34.24;100432.44;31428379;28;20063;-70
2022/06/19 10:57:20;;;;;;;6.97;3.72;;;;;;;31.14;35.22;100432.19;31429574;28;20061;-69
2022/06/19 11:12:34;;;;;;;5.63;3.78;;;;;;;31.28;34.43;100419.50;31452838;28;20503;-68
2022/06/19 11:27:36;;;;;;;2.63;1.70;;;;;;;30.80;36.41;100405.06;31432728;28;20055;-69
2022/06/19 11:42:59;;;;;;;52.00;21.02;;;;;;;30.21;35.75;100406.16;31402192;28;20052;-69
2022/06/19 11:58:10;;;;;;;10.20;3.92;;;;;;;29.18;31.50;100408.25;31418749;28;20052;-73
2022/06/19 12:13:22;;;;;;;1.52;1.02;;;;;;;28.80;30.78;100397.38;31423402;28;20052;-71
2022/06/19 12:28:45;;;;;;;1.30;0.98;;;;;;;28.56;32.32;100386.38;31412264;28;20064;-70
2022/06/19 12:43:58;;;;;;;2.33;1.50;;;;;;;28.52;35.04;100381.13;31413851;28;20412;-69
2022/06/19 12:59:28;;;;;;;89.80;50.17;;;;;;;28.40;32.99;100381.84;31445656;28;20553;-70
2022/06/19 13:15:00;;;;;;;2.95;2.30;;;;;;;28.30;33.03;100389.16;31436301;28;20044;-71
2022/06/19 13:30:17;;;;;;;1.70;1.30;;;;;;;28.16;35.79;100375.13;31413311;28;20048;-70
2022/06/19 13:45:54;;;;;;;5.05;1.58;;;;;;;28.08;35.81;100377.06;31412811;28;20052;-71
2022/06/19 14:01:03;;;;;;;3.20;1.65;;;;;;;27.87;38.55;100367.78;31429372;28;20045;-69
2022/06/19 14:16:17;;;;;;;4.40;3.35;;;;;;;27.84;38.05;100357.69;31419057;28;20052;-69
2022/06/19 14:31:25;;;;;;;4.13;1.73;;;;;;;27.53;37.39;100350.81;31432144;28;20052;-71
2022/06/19 14:47:00;;;;;;;3.80;1.80;;;;;;;27.41;37.73;100353.00;31447073;28;20144;-73
2022/06/19 15:02:04;;;;;;;4.88;2.95;;;;;;;27.38;38.44;100340.13;31453113;28;20074;-72
2022/06/19 15:17:18;;;;;;;3.92;2.20;;;;;;;27.34;39.19;100342.47;31453999;28;20056;-72
2022/06/19 15:32:24;;;;;;;7.03;2.17;;;;;;;27.15;39.78;100350.09;31464400;28;20106;-75
2022/06/19 15:47:46;;;;;;;3.47;2.28;;;;;;;27.11;38.67;100353.19;31458734;28;20048;-71
2022/06/19 16:02:48;;;;;;;;;;;;;;;26.98;38.66;100357.91;31440738;28;20049;-73
2022/06/19 16:17:54;;;;;;;2.47;1.73;;;;;;;26.69;39.68;100354.69;31448305;28;19974;-73
2022/06/19 16:32:56;;;;;;;4.47;1.58;;;;;;;26.49;38.61;100360.75;31447591;28;20097;-73
2022/06/19 16:48:11;;;;;;;8.82;5.70;;;;;;;26.26;38.82;100356.66;31439099;28;20048;-72
2022/06/19 17:03:27;;;;;;;5.95;1.60;;;;;;;26.04;38.86;100363.94;31436145;28;20055;-73
2022/06/19 17:18:47;;;;;;;2.00;1.63;;;;;;;25.82;39.19;100372.47;31480425;28;20162;-76
2022/06/19 17:33:50;;;;;;;3.30;1.92;;;;;;;25.52;39.94;100357.75;31469032;28;20052;-72
2022/06/19 17:49:06;;;;;;;2.90;2.13;;;;;;;25.26;40.53;100375.59;31463159;28;20045;-77
2022/06/19 18:04:18;;;;;;;57.95;36.72;;;;;;;25.04;40.79;100386.81;31418027;28;20040;-73
2022/06/19 18:19:21;;;;;;;3.80;2.43;;;;;;;24.89;40.89;100386.34;31468394;28;20143;-73
2022/06/19 18:34:25;;;;;;;4.22;2.25;;;;;;;24.70;40.87;100403.56;31458583;28;20064;-73
2022/06/19 18:49:32;;;;;;;4.55;2.70;;;;;;;24.51;40.75;100402.63;31432415;28;20064;-73
2022/06/19 19:04:35;;;;;;;4.97;2.20;;;;;;;24.41;40.50;100404.88;31451195;28;20040;-72
2022/06/19 19:19:38;;;;;;;3.70;1.48;;;;;;;24.20;40.85;100400.09;31441968;28;20040;-74
2022/06/19 19:34:40;;;;;;;3.00;1.97;;;;;;;23.95;41.59;100408.16;31423022;28;20064;-74
2022/06/19 19:49:43;;;;;;;3.17;1.73;;;;;;;23.37;43.81;100407.03;31403360;28;20048;-75
2022/06/19 20:04:45;;;;;;;3.67;2.43;;;;;;;23.02;45.25;100404.63;31405278;28;20052;-73
2022/06/19 20:19:47;;;;;;;8.07;2.50;;;;;;;22.95;45.62;100402.34;31406649;28;20340;-73
2022/06/19 20:34:50;;;;;;;2.57;1.83;;;;;;;22.86;45.77;100391.50;31397693;28;20400;-72
2022/06/19 20:50:00;;;;;;;4.55;2.50;;;;;;;22.85;47.50;100398.28;31417906;28;20488;-74
2022/06/19 21:05:05;;;;;;;4.68;2.30;;;;;;;22.58;48.10;100392.06;31440083;28;20040;-72
2022/06/19 21:20:08;;;;;;;5.32;2.25;;;;;;;22.47;48.55;100380.91;31423256;28;20048;-73
2022/06/19 21:35:11;;;;;;;7.38;2.33;;;;;;;22.45;48.75;100378.66;31445524;28;20067;-72
2022/06/19 21:50:13;;;;;;;;;;;;;;;22.18;50.32;100359.88;31444348;28;20052;-72
2022/06/19 22:05:16;;;;;;;9.60;6.07;;;;;;;22.01;50.15;100356.97;31462963;28;20284;-73
2022/06/19 22:20:19;;;;;;;5.38;2.53;;;;;;;21.93;52.31;100366.94;31439897;28;20052;-72
2022/06/19 22:35:21;;;;;;;4.03;2.95;;;;;;;21.60;55.37;100356.34;31432803;28;20056;-73
2022/06/19 22:50:26;;;;;;;7.20;3.63;;;;;;;21.35;57.16;100355.09;31422984;28;20060;-71
2022/06/19 23:05:32;;;;;;;5.25;3.25;;;;;;;21.40;59.27;100345.38;31459761;28;20053;-73
2022/06/19 23:20:54;;;;;;;9.15;4.47;;;;;;;21.24;68.58;100335.69;31433193;28;20043;-73
2022/06/19 23:35:56;;;;;;;11.45;5.30;;;;;;;21.16;66.32;100328.28;31421977;28;20065;-74
2022/06/19 23:50:58;;;;;;;6.40;4.78;;;;;;;20.94;69.45;100328.78;31411124;28;20051;-72
